createdAt,value
2018-11-11T00:01:14.739Z,90.55
2018-11-11T00:03:42.717Z,90.41
2018-11-11T00:06:10.717Z,90.67
2018-11-11T00:08:38.705Z,90.89
2018-11-11T00:11:06.751Z,90.61
2018-11-11T00:13:34.764Z,91.20
2018-11-11T00:16:02.784Z,90.91
2018-11-11T00:18:30.796Z,90.37
2018-11-11T00:20:58.842Z,90.90
2018-11-11T00:23:26.849Z,90.88
2018-11-11T00:25:54.917Z,91.33
2018-11-11T00:28:22.985Z,90.45
2018-11-11T00:30:50.936Z,90.81
2018-11-11T00:33:18.967Z,91.88
2018-11-11T00:35:46.937Z,91.93
2018-11-11T00:38:14.934Z,91.50
2018-11-11T00:40:42.936Z,92.00
2018-11-11T00:43:11.056Z,90.68
2018-11-11T00:45:39.161Z,90.50
2018-11-11T00:48:07.156Z,90.47
2018-11-11T00:50:35.165Z,90.37
2018-11-11T00:53:03.186Z,89.97
2018-11-11T00:55:35.426Z,90.88
2018-11-11T00:58:03.763Z,90.86
2018-11-11T01:00:31.937Z,89.91
2018-11-11T01:02:59.952Z,91.18
2018-11-11T01:05:27.945Z,90.81
2018-11-11T01:07:55.974Z,89.96
2018-11-11T01:10:23.954Z,89.49
2018-11-11T01:12:51.953Z,90.07
2018-11-11T01:15:19.985Z,90.58
2018-11-11T01:17:48.033Z,89.85
2018-11-11T01:20:17.124Z,90.26
2018-11-11T01:22:45.805Z,89.56
2018-11-11T01:25:14.940Z,89.47
2018-11-11T01:27:43.080Z,88.49
2018-11-11T01:30:11.135Z,90.08
2018-11-11T01:32:39.421Z,89.99
2018-11-11T01:35:09.365Z,91.00
2018-11-11T01:37:37.405Z,89.63
2018-11-11T01:40:05.893Z,89.81
2018-11-11T01:42:33.902Z,89.94
2018-11-11T01:45:01.933Z,89.64
2018-11-11T01:47:29.913Z,89.21
2018-11-11T01:49:57.919Z,89.27
2018-11-11T01:52:25.939Z,89.50
2018-11-11T01:54:53.924Z,89.44
2018-11-11T01:57:21.966Z,89.08
2018-11-11T01:59:50.004Z,88.96
2018-11-11T02:02:18.029Z,89.01
2018-11-11T02:04:46.062Z,90.00
2018-11-11T02:07:14.070Z,89.66
2018-11-11T02:09:42.055Z,89.58
2018-11-11T02:12:11.184Z,88.98
2018-11-11T02:14:39.176Z,89.28
2018-11-11T02:17:07.188Z,89.92
2018-11-11T02:19:35.248Z,90.55
2018-11-11T02:22:03.293Z,89.63
2018-11-11T02:24:31.313Z,90.08
2018-11-11T02:26:59.360Z,90.92
2018-11-11T02:29:27.349Z,90.43
2018-11-11T02:31:55.435Z,90.56
2018-11-11T02:34:23.413Z,89.56
2018-11-11T02:36:51.413Z,90.30
2018-11-11T02:39:19.452Z,89.90
2018-11-11T02:41:47.473Z,89.23
2018-11-11T02:44:15.639Z,90.25
2018-11-11T02:46:43.797Z,89.70
2018-11-11T02:49:11.788Z,89.90
2018-11-11T02:51:39.885Z,89.59
2018-11-11T02:54:07.896Z,90.46
2018-11-11T02:56:35.903Z,90.35
2018-11-11T02:59:03.905Z,89.67
2018-11-11T03:01:31.972Z,90.23
2018-11-11T03:04:00.026Z,90.18
2018-11-11T03:06:28.022Z,90.17
2018-11-11T03:08:56.066Z,89.37
2018-11-11T03:11:24.210Z,90.07
2018-11-11T03:13:52.206Z,89.92
2018-11-11T03:16:20.187Z,90.52
2018-11-11T03:18:48.228Z,90.57
2018-11-11T03:21:16.308Z,89.92
2018-11-11T03:23:44.384Z,91.04
2018-11-11T03:26:12.517Z,91.04
2018-11-11T03:28:40.628Z,90.48
2018-11-11T03:31:08.629Z,91.55
2018-11-11T03:33:36.845Z,91.34
2018-11-11T03:36:05.137Z,91.29
2018-11-11T03:38:33.151Z,90.67
2018-11-11T03:41:01.190Z,90.84
2018-11-11T03:43:29.157Z,90.76
2018-11-11T03:45:57.169Z,91.49
2018-11-11T03:48:25.232Z,91.41
2018-11-11T03:50:53.236Z,90.68
2018-11-11T03:53:21.253Z,91.00
2018-11-11T03:55:49.239Z,90.26
2018-11-11T03:58:17.242Z,90.16
2018-11-11T04:00:45.232Z,91.05
2018-11-11T04:03:13.262Z,90.22
2018-11-11T04:05:41.386Z,90.49
2018-11-11T04:08:09.438Z,90.08
2018-11-11T04:10:37.453Z,89.86
2018-11-11T04:13:05.469Z,89.50
2018-11-11T04:15:33.500Z,90.16
2018-11-11T04:18:01.517Z,89.82
2018-11-11T04:20:29.568Z,89.77
2018-11-11T04:22:57.605Z,88.60
2018-11-11T04:25:25.610Z,88.26
2018-11-11T04:27:53.622Z,88.59
2018-11-11T04:30:21.620Z,88.92
2018-11-11T04:32:49.676Z,89.91
2018-11-11T04:35:17.692Z,90.99
2018-11-11T04:37:45.776Z,91.14
2018-11-11T04:40:14.248Z,91.45
2018-11-11T04:42:42.227Z,90.82
2018-11-11T04:45:12.532Z,91.72
2018-11-11T04:47:40.574Z,91.91
2018-11-11T04:50:10.176Z,90.82
2018-11-11T04:52:38.206Z,91.63
2018-11-11T04:55:06.512Z,90.67
2018-11-11T04:57:34.621Z,91.61
2018-11-11T05:00:02.611Z,91.20
2018-11-11T05:02:30.610Z,90.87
2018-11-11T05:04:58.585Z,90.87
2018-11-11T05:07:26.610Z,91.55
2018-11-11T05:09:54.681Z,90.83
2018-11-11T05:12:22.672Z,90.49
2018-11-11T05:14:50.736Z,89.67
2018-11-11T05:17:18.729Z,90.07
2018-11-11T05:19:46.846Z,90.48
2018-11-11T05:22:14.901Z,91.07
2018-11-11T05:24:42.882Z,90.75
2018-11-11T05:27:10.872Z,90.01
2018-11-11T05:29:38.869Z,90.46
2018-11-11T05:32:06.865Z,90.41
2018-11-11T05:34:34.888Z,90.24
2018-11-11T05:37:02.919Z,90.32
2018-11-11T05:39:30.917Z,91.80
2018-11-11T05:41:58.897Z,91.42
2018-11-11T05:44:26.893Z,90.39
2018-11-11T05:46:54.897Z,90.60
2018-11-11T05:49:23.002Z,90.31
2018-11-11T05:51:51.021Z,88.75
2018-11-11T05:54:18.993Z,88.98
2018-11-11T05:56:46.969Z,89.14
2018-11-11T05:59:15.005Z,88.99
2018-11-11T06:01:43.009Z,89.52
2018-11-11T06:04:11.042Z,89.22
2018-11-11T06:06:39.035Z,88.57
2018-11-11T06:09:09.001Z,89.09
2018-11-11T06:11:37.236Z,88.85
2018-11-11T06:14:05.605Z,88.42
2018-11-11T06:16:33.685Z,89.62
2018-11-11T06:19:01.771Z,90.15
2018-11-11T06:21:29.788Z,89.88
2018-11-11T06:23:57.778Z,89.81
2018-11-11T06:26:25.768Z,90.05
2018-11-11T06:28:53.992Z,89.75
2018-11-11T06:31:21.992Z,89.81
2018-11-11T06:33:49.987Z,89.96
2018-11-11T06:36:17.952Z,90.10
2018-11-11T06:38:45.960Z,89.38
2018-11-11T06:41:14.108Z,89.10
2018-11-11T06:43:42.125Z,89.12
2018-11-11T06:46:10.128Z,89.49
2018-11-11T06:48:38.264Z,89.28
2018-11-11T06:51:06.360Z,88.51
2018-11-11T06:53:34.385Z,88.14
2018-11-11T06:56:02.377Z,87.94
2018-11-11T06:58:30.468Z,88.24
2018-11-11T07:00:58.521Z,88.49
2018-11-11T07:03:37.977Z,87.48
2018-11-11T07:06:06.259Z,87.56
2018-11-11T07:08:34.736Z,87.93
2018-11-11T07:11:02.725Z,87.75
2018-11-11T07:13:30.744Z,87.94
2018-11-11T07:15:58.949Z,87.32
2018-11-11T07:18:26.949Z,87.74
2018-11-11T07:20:54.937Z,87.87
2018-11-11T07:23:22.931Z,88.16
2018-11-11T07:25:50.937Z,88.02
2018-11-11T07:28:18.936Z,86.49
2018-11-11T07:30:46.937Z,87.24
2018-11-11T07:33:15.000Z,87.38
2018-11-11T07:35:43.077Z,86.87
2018-11-11T07:38:11.162Z,87.41
2018-11-11T07:40:39.184Z,86.70
2018-11-11T07:43:07.189Z,87.65
2018-11-11T07:45:35.272Z,86.91
2018-11-11T07:48:03.349Z,87.08
2018-11-11T07:50:31.373Z,86.43
2018-11-11T07:52:59.389Z,86.88
2018-11-11T07:55:27.473Z,86.21
2018-11-11T07:57:55.625Z,85.97
2018-11-11T08:00:23.693Z,85.79
2018-11-11T08:02:51.718Z,85.42
2018-11-11T08:05:19.712Z,85.10
2018-11-11T08:07:47.725Z,85.25
2018-11-11T08:10:27.275Z,85.90
2018-11-11T08:12:55.444Z,86.02
2018-11-11T08:15:23.434Z,86.15
2018-11-11T08:17:51.409Z,85.89
2018-11-11T08:20:19.439Z,85.95
2018-11-11T08:22:47.630Z,85.51
2018-11-11T08:25:15.642Z,85.33
2018-11-11T08:27:43.696Z,86.45
2018-11-11T08:30:11.681Z,86.28
2018-11-11T08:32:39.704Z,85.94
2018-11-11T08:35:08.777Z,85.93
2018-11-11T08:37:36.952Z,86.03
2018-11-11T08:40:05.813Z,85.50
2018-11-11T08:42:33.840Z,85.43
2018-11-11T08:45:02.022Z,85.67
2018-11-11T08:47:30.105Z,84.71
2018-11-11T08:49:58.102Z,84.39
2018-11-11T08:52:26.096Z,84.75
2018-11-11T08:54:54.113Z,84.18
2018-11-11T08:57:22.896Z,84.49
2018-11-11T08:59:50.917Z,85.21
2018-11-11T09:02:18.925Z,83.95
2018-11-11T09:04:46.928Z,84.27
2018-11-11T09:07:14.898Z,84.20
2018-11-11T09:09:42.918Z,83.92
2018-11-11T09:12:10.992Z,83.51
2018-11-11T09:14:39.042Z,83.91
2018-11-11T09:17:07.063Z,83.83
2018-11-11T09:19:35.207Z,83.19
2018-11-11T09:22:03.809Z,83.97
2018-11-11T09:24:32.520Z,83.32
2018-11-11T09:27:00.513Z,83.35
2018-11-11T09:29:28.606Z,84.01
2018-11-11T09:31:56.910Z,82.94
2018-11-11T09:34:25.623Z,83.92
2018-11-11T09:36:53.827Z,82.87
2018-11-11T09:39:22.110Z,83.60
2018-11-11T09:41:50.324Z,82.69
2018-11-11T09:44:18.657Z,82.22
2018-11-11T09:46:47.047Z,81.51
2018-11-11T09:49:15.387Z,82.17
2018-11-11T09:51:43.620Z,81.73
2018-11-11T09:54:11.912Z,81.06
2018-11-11T09:56:40.032Z,80.22
2018-11-11T09:59:08.460Z,80.32
2018-11-11T10:01:36.487Z,81.68
2018-11-11T10:04:15.031Z,80.49
2018-11-11T10:06:52.826Z,80.47
2018-11-11T10:11:32.431Z,81.71
2018-11-11T10:14:08.383Z,80.53
2018-11-11T10:16:44.393Z,81.29
2018-11-11T10:19:23.203Z,80.59
2018-11-11T10:21:56.586Z,80.78
2018-11-11T10:24:32.590Z,79.89
2018-11-11T10:27:07.614Z,79.56
2018-11-11T10:29:40.957Z,79.45
2018-11-11T10:32:24.333Z,79.76
2018-11-11T10:34:57.825Z,78.56
2018-11-11T10:37:29.742Z,78.68
2018-11-11T10:40:05.961Z,78.82
2018-11-11T10:43:09.284Z,78.67
2018-11-11T10:45:42.746Z,77.50
2018-11-11T10:48:12.146Z,77.77
2018-11-11T10:50:52.341Z,77.12
2018-11-11T10:53:20.561Z,76.11
2018-11-11T10:55:48.617Z,75.78
2018-11-11T10:58:16.608Z,76.84
2018-11-11T11:00:50.125Z,76.47
2018-11-11T11:03:23.484Z,75.94
2018-11-11T11:05:51.612Z,75.46
2018-11-11T11:08:19.732Z,75.33
2018-11-11T11:10:47.791Z,74.21
2018-11-11T11:13:15.889Z,73.44
2018-11-11T11:15:43.887Z,75.11
2018-11-11T11:18:11.894Z,72.78
2018-11-11T11:20:40.073Z,72.99
2018-11-11T11:23:08.190Z,72.83
2018-11-11T11:25:36.170Z,73.76
2018-11-11T11:28:04.154Z,73.20
2018-11-11T11:30:32.289Z,72.84
2018-11-11T11:33:00.415Z,74.03
2018-11-11T11:35:28.523Z,73.15
2018-11-11T11:37:56.460Z,73.54
2018-11-11T11:40:24.487Z,73.53
2018-11-11T11:42:52.497Z,72.89
2018-11-11T11:45:20.552Z,74.24
2018-11-11T11:47:48.540Z,73.64
2018-11-11T11:50:16.565Z,73.11
2018-11-11T11:52:44.552Z,73.67
2018-11-11T11:55:13.072Z,73.34
2018-11-11T11:57:41.433Z,73.09
2018-11-11T12:00:11.060Z,72.66
2018-11-11T12:02:39.380Z,71.70
2018-11-11T12:05:08.214Z,72.00
2018-11-11T12:07:36.232Z,70.98
2018-11-11T12:10:04.637Z,71.46
2018-11-11T12:12:32.733Z,71.53
2018-11-11T12:15:00.737Z,71.14
2018-11-11T12:17:28.797Z,70.90
2018-11-11T12:19:56.851Z,70.53
2018-11-11T12:22:24.865Z,70.41
2018-11-11T12:24:52.970Z,70.50
2018-11-11T12:27:20.970Z,70.79
2018-11-11T12:29:48.953Z,71.68
2018-11-11T12:32:16.990Z,71.29
2018-11-11T12:34:44.991Z,71.07
2018-11-11T12:37:12.977Z,70.96
2018-11-11T12:39:41.083Z,69.77
2018-11-11T12:42:09.029Z,70.74
2018-11-11T12:44:37.052Z,70.39
2018-11-11T12:47:05.710Z,70.44
2018-11-11T12:49:33.672Z,71.20
2018-11-11T12:52:01.682Z,71.60
2018-11-11T12:54:29.689Z,71.55
2018-11-11T12:56:57.682Z,70.91
2018-11-11T12:59:25.663Z,72.00
2018-11-11T13:01:53.652Z,70.94
2018-11-11T13:04:21.719Z,70.01
2018-11-11T13:06:49.664Z,70.04
2018-11-11T13:09:17.660Z,70.23
2018-11-11T13:11:45.664Z,70.70
2018-11-11T13:14:13.698Z,70.95
2018-11-11T13:16:41.723Z,71.45
2018-11-11T13:19:09.740Z,69.82
2018-11-11T13:21:37.739Z,70.75
2018-11-11T13:24:06.226Z,70.85
2018-11-11T13:26:34.266Z,70.52
2018-11-11T13:29:02.285Z,71.28
2018-11-11T13:31:30.289Z,71.48
2018-11-11T13:33:58.545Z,70.23
2018-11-11T13:36:26.557Z,70.56
2018-11-11T13:38:54.761Z,69.17
2018-11-11T13:41:22.755Z,68.15
2018-11-11T13:43:50.744Z,67.81
2018-11-11T13:46:18.837Z,67.46
2018-11-11T13:48:46.785Z,66.98
2018-11-11T13:51:14.878Z,66.00
2018-11-11T13:53:42.911Z,64.96
2018-11-11T13:56:11.001Z,64.22
2018-11-11T13:58:39.070Z,65.49
2018-11-11T14:01:07.285Z,64.80
2018-11-11T14:03:35.272Z,64.89
2018-11-11T14:06:03.364Z,64.62
2018-11-11T14:08:31.392Z,65.04
2018-11-11T14:10:59.451Z,64.93
2018-11-11T14:13:27.418Z,65.68
2018-11-11T14:15:55.620Z,65.20
2018-11-11T14:18:23.637Z,64.74
2018-11-11T14:20:51.609Z,64.89
2018-11-11T14:23:19.626Z,65.13
2018-11-11T14:25:47.791Z,65.02
2018-11-11T14:28:15.739Z,65.21
2018-11-11T14:30:43.712Z,65.36
2018-11-11T14:33:11.801Z,64.01
2018-11-11T14:35:39.820Z,63.12
2018-11-11T14:38:07.960Z,63.62
2018-11-11T14:40:35.985Z,63.50
2018-11-11T14:43:03.980Z,63.16
2018-11-11T14:45:32.021Z,62.88
2018-11-11T14:48:00.192Z,63.28
2018-11-11T14:50:28.326Z,63.29
2018-11-11T14:52:56.394Z,62.61
2018-11-11T14:55:25.598Z,62.99
2018-11-11T14:57:53.961Z,63.65
2018-11-11T15:00:23.458Z,63.37
2018-11-11T15:03:03.420Z,64.33
2018-11-11T15:05:31.596Z,64.35
2018-11-11T15:07:59.675Z,63.14
2018-11-11T15:10:27.625Z,64.38
2018-11-11T15:12:55.717Z,64.62
2018-11-11T15:15:24.272Z,63.93
2018-11-11T15:17:53.072Z,64.17
2018-11-11T15:20:21.177Z,64.37
2018-11-11T15:22:49.114Z,64.88
2018-11-11T15:25:18.430Z,65.75
2018-11-11T15:27:46.860Z,65.27
2018-11-11T15:30:18.204Z,65.95
2018-11-11T15:32:46.576Z,65.84
2018-11-11T15:35:14.757Z,66.10
2018-11-11T15:37:42.752Z,65.38
2018-11-11T15:40:14.068Z,66.29
2018-11-11T15:42:42.118Z,67.06
2018-11-11T15:45:13.448Z,67.29
2018-11-11T15:47:41.523Z,67.55
2018-11-11T15:50:12.933Z,68.37
2018-11-11T15:52:41.944Z,69.50
2018-11-11T15:55:10.943Z,68.97
2018-11-11T15:57:39.190Z,68.92
2018-11-11T16:00:10.941Z,70.07
2018-11-11T16:02:39.557Z,69.41
2018-11-11T16:05:08.019Z,69.20
2018-11-11T16:07:36.168Z,70.09
2018-11-11T16:10:04.201Z,69.79
2018-11-11T16:12:32.590Z,69.68
2018-11-11T16:15:00.617Z,69.62
2018-11-11T16:17:28.600Z,69.05
2018-11-11T16:19:56.682Z,69.53
2018-11-11T16:22:24.645Z,69.88
2018-11-11T16:24:52.940Z,70.48
2018-11-11T16:27:20.940Z,70.19
2018-11-11T16:29:49.050Z,71.00
2018-11-11T16:32:17.104Z,71.15
2018-11-11T16:34:45.086Z,71.10
2018-11-11T16:37:13.322Z,72.70
2018-11-11T16:39:41.353Z,72.55
2018-11-11T16:42:09.281Z,74.35
2018-11-11T16:44:37.277Z,73.94
2018-11-11T16:47:05.289Z,75.15
2018-11-11T16:49:33.288Z,74.96
2018-11-11T16:52:01.288Z,74.25
2018-11-11T16:54:29.367Z,74.59
2018-11-11T16:56:57.367Z,74.74
2018-11-11T16:59:25.361Z,75.19
2018-11-11T17:01:53.446Z,74.80
2018-11-11T17:04:21.585Z,76.20
2018-11-11T17:06:49.518Z,75.83
2018-11-11T17:09:17.549Z,75.91
2018-11-11T17:11:45.576Z,77.70
2018-11-11T17:14:13.640Z,77.86
2018-11-11T17:16:41.613Z,78.98
2018-11-11T17:19:09.712Z,79.54
2018-11-11T17:21:37.871Z,79.59
2018-11-11T17:24:05.921Z,79.87
2018-11-11T17:26:34.028Z,79.71
2018-11-11T17:29:02.150Z,79.16
2018-11-11T17:31:30.097Z,79.69
2018-11-11T17:33:58.109Z,79.20
2018-11-11T17:36:26.104Z,78.83
2018-11-11T17:38:54.540Z,78.25
2018-11-11T17:41:22.583Z,79.41
2018-11-11T17:43:50.599Z,78.69
2018-11-11T17:46:18.710Z,80.27
2018-11-11T17:48:46.742Z,79.22
2018-11-11T17:51:14.757Z,79.58
2018-11-11T17:53:42.784Z,79.65
2018-11-11T17:56:10.896Z,79.55
2018-11-11T17:58:38.928Z,79.87
2018-11-11T18:01:07.532Z,79.41
2018-11-11T18:03:35.559Z,79.79
2018-11-11T18:06:03.865Z,80.39
2018-11-11T18:08:31.858Z,80.41
2018-11-11T18:10:59.963Z,80.25
2018-11-11T18:13:28.009Z,79.97
2018-11-11T18:15:55.993Z,79.83
2018-11-11T18:18:24.065Z,79.75
2018-11-11T18:20:52.085Z,80.21
2018-11-11T18:23:20.093Z,79.60
2018-11-11T18:25:48.128Z,79.70
2018-11-11T18:28:16.239Z,79.06
2018-11-11T18:30:44.224Z,79.36
2018-11-11T18:33:12.425Z,79.61
2018-11-11T18:35:40.436Z,79.24
2018-11-11T18:38:08.472Z,79.14
2018-11-11T18:40:36.637Z,81.10
2018-11-11T18:43:05.182Z,81.83
2018-11-11T18:45:33.278Z,81.99
2018-11-11T18:48:01.249Z,82.51
2018-11-11T18:50:31.671Z,81.74
2018-11-11T18:52:59.809Z,80.68
2018-11-11T18:55:27.870Z,80.50
2018-11-11T18:57:56.065Z,80.35
2018-11-11T19:00:25.395Z,80.84
2018-11-11T19:02:54.330Z,79.95
2018-11-11T19:05:23.188Z,80.12
2018-11-11T19:07:51.371Z,79.22
2018-11-11T19:10:20.803Z,79.07
2018-11-11T19:12:50.000Z,78.10
2018-11-11T19:15:18.825Z,78.22
2018-11-11T19:17:47.528Z,78.16
2018-11-11T19:20:16.830Z,78.29
2018-11-11T19:22:44.885Z,78.02
2018-11-11T19:25:15.005Z,77.99
2018-11-11T19:27:43.833Z,77.84
2018-11-11T19:30:12.809Z,77.97
2018-11-11T19:32:41.402Z,77.49
2018-11-11T19:35:10.551Z,76.01
2018-11-11T19:37:38.534Z,76.27
2018-11-11T19:40:09.339Z,77.47
2018-11-11T19:42:37.441Z,78.47
2018-11-11T19:45:07.146Z,79.10
2018-11-11T19:47:35.337Z,79.56
2018-11-11T19:50:03.491Z,80.85
2018-11-11T19:52:31.468Z,80.02
2018-11-11T19:54:59.476Z,81.83
2018-11-11T19:57:27.530Z,81.35
2018-11-11T19:59:55.589Z,81.12
2018-11-11T20:02:23.651Z,81.10
2018-11-11T20:04:51.660Z,80.56
2018-11-11T20:07:19.694Z,81.74
2018-11-11T20:09:47.747Z,80.85
2018-11-11T20:12:15.822Z,80.63
2018-11-11T20:14:43.858Z,81.25
2018-11-11T20:17:11.897Z,80.60
2018-11-11T20:19:39.904Z,81.02
2018-11-11T20:22:07.906Z,80.71
2018-11-11T20:24:36.034Z,79.82
2018-11-11T20:27:04.353Z,80.48
2018-11-11T20:30:03.989Z,81.15
2018-11-11T20:32:31.995Z,80.97
2018-11-11T20:35:00.120Z,80.79
2018-11-11T20:37:28.196Z,82.08
2018-11-11T20:39:56.145Z,81.33
2018-11-11T20:42:24.190Z,81.10
2018-11-11T20:44:52.260Z,82.33
2018-11-11T20:47:21.369Z,82.16
2018-11-11T20:49:49.462Z,82.28
2018-11-11T20:52:17.383Z,82.01
2018-11-11T20:54:45.417Z,82.12
2018-11-11T20:57:13.641Z,83.12
2018-11-11T20:59:41.656Z,84.53
2018-11-11T21:02:09.694Z,84.65
2018-11-11T21:04:37.757Z,85.01
2018-11-11T21:07:05.802Z,85.72
2018-11-11T21:09:33.792Z,85.71
2018-11-11T21:12:01.901Z,85.30
2018-11-11T21:14:29.938Z,84.64
2018-11-11T21:17:06.891Z,84.21
2018-11-11T21:19:38.050Z,83.39
2018-11-11T21:22:07.651Z,84.05
2018-11-11T21:24:35.859Z,84.11
2018-11-11T21:27:04.163Z,84.55
2018-11-11T21:29:32.176Z,84.49
2018-11-11T21:32:00.325Z,83.79
2018-11-11T21:34:28.339Z,84.08
2018-11-11T21:36:56.393Z,83.87
2018-11-11T21:39:24.377Z,84.62
2018-11-11T21:41:52.402Z,86.19
2018-11-11T21:44:20.573Z,85.47
2018-11-11T21:46:48.557Z,85.99
2018-11-11T21:49:16.534Z,84.94
2018-11-11T21:51:44.552Z,85.07
2018-11-11T21:54:12.681Z,85.88
2018-11-11T21:56:40.754Z,86.13
2018-11-11T21:59:08.892Z,86.04
2018-11-11T22:01:37.178Z,86.76
2018-11-11T22:04:05.197Z,86.81
2018-11-11T22:06:33.212Z,87.04
2018-11-11T22:09:01.289Z,86.34
2018-11-11T22:11:29.343Z,86.87
2018-11-11T22:13:57.345Z,88.34
2018-11-11T22:16:25.401Z,88.83
2018-11-11T22:18:53.460Z,88.50
2018-11-11T22:21:21.478Z,87.68
2018-11-11T22:23:49.559Z,88.30
2018-11-11T22:26:17.603Z,87.65
2018-11-11T22:28:45.600Z,88.62
2018-11-11T22:31:13.784Z,87.56
2018-11-11T22:33:41.789Z,87.13
2018-11-11T22:36:09.793Z,87.13
2018-11-11T22:38:37.788Z,87.52
2018-11-11T22:41:06.055Z,87.63
2018-11-11T22:43:34.053Z,87.46
2018-11-11T22:46:02.099Z,86.58
2018-11-11T22:48:30.141Z,86.87
2018-11-11T22:50:58.226Z,87.51
2018-11-11T22:53:26.271Z,86.92
2018-11-11T22:55:54.329Z,88.18
2018-11-11T22:58:22.332Z,88.34
2018-11-11T23:00:55.923Z,88.33
2018-11-11T23:03:23.940Z,88.40
2018-11-11T23:05:52.070Z,89.09
2018-11-11T23:08:20.142Z,88.63
2018-11-11T23:10:48.178Z,89.24
2018-11-11T23:13:16.305Z,88.73
2018-11-11T23:15:44.292Z,87.24
2018-11-11T23:18:12.305Z,89.27
2018-11-11T23:20:40.390Z,88.11
2018-11-11T23:23:08.396Z,86.46
2018-11-11T23:25:36.444Z,85.27
2018-11-11T23:28:05.010Z,85.30
2018-11-11T23:30:33.020Z,86.06
2018-11-11T23:33:01.025Z,84.65
2018-11-11T23:35:29.031Z,84.95
2018-11-11T23:37:57.056Z,84.58
2018-11-11T23:40:25.168Z,84.36
2018-11-11T23:42:53.317Z,83.13
2018-11-11T23:45:21.355Z,82.96
2018-11-11T23:47:49.360Z,83.31
2018-11-11T23:50:18.847Z,83.31
2018-11-11T23:52:47.156Z,83.16
2018-11-11T23:55:17.323Z,83.57
2018-11-11T23:57:45.371Z,82.68
